createdAt,value
2022-12-06T00:02:18.619Z,7.22
2022-12-06T00:04:48.329Z,6.95
2022-12-06T00:07:17.762Z,7.82
2022-12-06T00:09:47.260Z,6.60
2022-12-06T00:12:16.796Z,6.50
2022-12-06T00:14:46.357Z,6.13
2022-12-06T00:17:17.264Z,6.82
2022-12-06T00:19:46.722Z,6.53
2022-12-06T00:22:16.226Z,6.97
2022-12-06T00:24:45.628Z,6.45
2022-12-06T00:27:15.116Z,7.07
2022-12-06T00:29:44.579Z,6.85
2022-12-06T00:32:19.256Z,7.07
2022-12-06T00:34:50.624Z,7.32
2022-12-06T00:37:20.119Z,5.95
2022-12-06T00:39:49.695Z,7.00
2022-12-06T00:42:19.180Z,7.35
2022-12-06T00:44:48.584Z,7.05
2022-12-06T00:47:18.014Z,8.05
2022-12-06T00:49:47.512Z,8.15
2022-12-06T00:52:18.276Z,6.80
2022-12-06T00:54:47.752Z,7.65
2022-12-06T00:57:17.259Z,6.97
2022-12-06T00:59:46.705Z,6.55
2022-12-06T01:02:16.194Z,6.82
2022-12-06T01:04:45.811Z,6.75
2022-12-06T01:07:15.264Z,6.85
2022-12-06T01:09:46.426Z,6.85
2022-12-06T01:12:16.027Z,6.32
2022-12-06T01:14:45.535Z,6.78
2022-12-06T01:17:15.102Z,7.57
2022-12-06T01:19:44.750Z,7.68
2022-12-06T01:22:14.247Z,7.45
2022-12-06T01:24:45.091Z,7.95
2022-12-06T01:27:14.585Z,6.78
2022-12-06T01:29:44.061Z,7.30
2022-12-06T01:32:13.571Z,7.18
2022-12-06T01:34:43.484Z,8.23
2022-12-06T01:37:13.076Z,6.97
2022-12-06T01:39:42.607Z,6.47
2022-12-06T01:42:15.081Z,8.00
2022-12-06T01:44:48.023Z,8.45
2022-12-06T01:47:26.356Z,7.90
2022-12-06T01:50:01.395Z,8.75
2022-12-06T01:52:36.084Z,9.68
2022-12-06T01:55:08.546Z,8.60
2022-12-06T01:57:39.737Z,9.40
2022-12-06T02:00:12.498Z,8.30
2022-12-06T02:02:42.248Z,9.10
2022-12-06T02:05:12.909Z,7.88
2022-12-06T02:07:43.458Z,8.18
2022-12-06T02:10:14.312Z,9.35
2022-12-06T02:12:45.197Z,9.55
2022-12-06T02:15:14.859Z,9.00
2022-12-06T02:17:51.695Z,9.05
2022-12-06T02:20:30.938Z,9.23
2022-12-06T02:23:40.345Z,8.95
2022-12-06T02:26:37.702Z,8.57
2022-12-06T02:29:58.702Z,8.50
2022-12-06T02:32:36.329Z,8.85
2022-12-06T02:35:16.141Z,8.13
2022-12-06T02:37:54.061Z,8.90
2022-12-06T02:40:30.167Z,8.85
2022-12-06T02:43:04.013Z,8.52
2022-12-06T02:45:40.547Z,8.25
2022-12-06T02:48:14.297Z,7.68
2022-12-06T02:50:53.749Z,8.68
2022-12-06T02:53:25.484Z,8.63
2022-12-06T02:55:56.196Z,10.52
2022-12-06T02:58:25.855Z,9.52
2022-12-06T03:00:59.402Z,9.40
2022-12-06T03:04:08.069Z,9.30
2022-12-06T03:07:09.145Z,8.18
2022-12-06T03:09:56.163Z,8.90
2022-12-06T03:12:36.645Z,9.55
2022-12-06T03:15:16.161Z,8.88
2022-12-06T03:17:53.963Z,9.38
2022-12-06T03:20:33.197Z,8.77
2022-12-06T03:23:08.000Z,9.13
2022-12-06T03:25:38.262Z,9.05
2022-12-06T03:28:10.817Z,8.52
2022-12-06T03:30:47.486Z,7.97
2022-12-06T03:33:19.181Z,11.00
2022-12-06T03:35:52.826Z,10.27
2022-12-06T03:38:29.303Z,9.10
2022-12-06T03:41:04.259Z,10.93
2022-12-06T03:43:34.872Z,10.32
2022-12-06T03:46:12.575Z,10.40
2022-12-06T03:48:48.015Z,11.60
2022-12-06T03:51:25.558Z,9.70
2022-12-06T03:53:59.273Z,11.68
2022-12-06T03:56:30.436Z,12.18
2022-12-06T03:58:59.949Z,13.02
2022-12-06T04:01:29.480Z,10.85
2022-12-06T04:03:59.123Z,10.32
2022-12-06T04:06:30.139Z,11.88
2022-12-06T04:09:19.764Z,11.57
2022-12-06T04:11:49.246Z,10.75
2022-12-06T04:14:19.045Z,11.32
2022-12-06T04:17:05.905Z,11.02
2022-12-06T04:19:35.474Z,11.27
2022-12-06T04:22:23.765Z,11.43
2022-12-06T04:24:53.290Z,11.90
2022-12-06T04:27:40.269Z,11.30
2022-12-06T04:30:29.824Z,12.00
2022-12-06T04:33:16.970Z,13.15
2022-12-06T04:36:04.014Z,12.48
2022-12-06T04:38:41.192Z,12.73
2022-12-06T04:41:10.977Z,13.00
2022-12-06T04:43:42.136Z,13.90
2022-12-06T04:46:14.131Z,11.82
2022-12-06T04:48:43.832Z,12.40
2022-12-06T04:51:13.807Z,12.07
2022-12-06T04:53:44.759Z,13.40
2022-12-06T04:56:14.310Z,12.60
2022-12-06T04:58:44.120Z,13.10
2022-12-06T05:01:13.890Z,14.35
2022-12-06T05:03:44.503Z,15.95
2022-12-06T05:06:14.290Z,14.45
2022-12-06T05:08:45.133Z,13.88
2022-12-06T05:11:15.598Z,14.80
2022-12-06T05:13:45.276Z,16.02
2022-12-06T05:16:17.207Z,14.55
2022-12-06T05:18:46.916Z,15.23
2022-12-06T05:21:20.532Z,15.27
2022-12-06T05:23:54.861Z,15.55
2022-12-06T05:26:28.176Z,15.88
2022-12-06T05:28:59.196Z,13.45
2022-12-06T05:31:29.422Z,15.40
2022-12-06T05:33:58.969Z,16.33
2022-12-06T05:36:29.665Z,14.65
2022-12-06T05:39:00.723Z,16.63
2022-12-06T05:41:30.216Z,15.70
2022-12-06T05:44:00.226Z,14.82
2022-12-06T05:46:29.967Z,14.95
2022-12-06T05:48:59.661Z,16.25
2022-12-06T05:51:29.182Z,13.68
2022-12-06T05:54:02.947Z,15.18
2022-12-06T05:56:32.745Z,17.35
2022-12-06T05:59:03.423Z,15.32
2022-12-06T06:01:33.480Z,14.88
2022-12-06T06:04:03.060Z,14.52
2022-12-06T06:06:32.647Z,16.00
2022-12-06T06:09:03.954Z,16.35
2022-12-06T06:11:33.800Z,14.80
2022-12-06T06:14:03.228Z,15.35
2022-12-06T06:16:34.326Z,15.32
2022-12-06T06:19:03.939Z,16.70
2022-12-06T06:21:33.725Z,14.02
2022-12-06T06:24:04.880Z,14.93
2022-12-06T06:26:34.452Z,16.13
2022-12-06T06:29:04.259Z,13.82
2022-12-06T06:31:34.197Z,13.60
2022-12-06T06:34:03.820Z,12.95
2022-12-06T06:36:33.463Z,16.55
2022-12-06T06:39:04.408Z,15.23
2022-12-06T06:41:33.852Z,14.27
2022-12-06T06:44:03.405Z,16.02
2022-12-06T06:46:33.248Z,15.27
2022-12-06T06:49:03.072Z,14.40
2022-12-06T06:51:33.984Z,14.70
2022-12-06T06:54:05.154Z,16.35
2022-12-06T06:56:34.597Z,15.05
2022-12-06T06:59:04.126Z,16.05
2022-12-06T07:01:33.680Z,15.25
2022-12-06T07:04:03.748Z,15.65
2022-12-06T07:06:33.252Z,16.60
2022-12-06T07:09:04.098Z,16.33
2022-12-06T07:11:33.813Z,15.40
2022-12-06T07:14:03.992Z,14.10
2022-12-06T07:16:33.747Z,14.00
2022-12-06T07:19:07.682Z,14.40
2022-12-06T07:21:38.671Z,15.95
2022-12-06T07:24:10.077Z,13.63
2022-12-06T07:26:39.681Z,14.35
2022-12-06T07:29:09.165Z,15.90
2022-12-06T07:31:40.212Z,14.38
2022-12-06T07:34:11.700Z,13.50
2022-12-06T07:36:41.245Z,15.15
2022-12-06T07:39:14.951Z,15.18
2022-12-06T07:42:02.038Z,15.30
2022-12-06T07:45:05.482Z,14.25
2022-12-06T07:47:36.795Z,14.77
2022-12-06T07:50:12.995Z,13.32
2022-12-06T07:52:48.037Z,14.45
2022-12-06T07:55:20.212Z,14.02
2022-12-06T07:57:49.641Z,13.70
2022-12-06T08:00:20.647Z,15.98
2022-12-06T08:02:50.083Z,14.55
2022-12-06T08:05:20.045Z,12.65
2022-12-06T08:07:49.590Z,14.75
2022-12-06T08:10:20.770Z,14.35
2022-12-06T08:12:50.237Z,12.43
2022-12-06T08:15:19.822Z,14.27
2022-12-06T08:17:49.392Z,14.05
2022-12-06T08:20:19.088Z,13.10
2022-12-06T08:22:48.646Z,12.27
2022-12-06T08:25:19.599Z,13.18
2022-12-06T08:27:49.029Z,13.15
2022-12-06T08:30:18.757Z,13.25
2022-12-06T08:32:48.313Z,13.73
2022-12-06T08:35:18.198Z,12.60
2022-12-06T08:37:47.713Z,11.55
2022-12-06T08:40:18.898Z,12.77
2022-12-06T08:42:48.357Z,12.02
2022-12-06T08:45:18.010Z,13.27
2022-12-06T08:47:47.519Z,13.18
2022-12-06T08:50:17.180Z,12.25
2022-12-06T08:52:46.694Z,12.07
2022-12-06T08:55:16.485Z,13.25
2022-12-06T08:57:47.307Z,11.23
2022-12-06T09:00:18.545Z,10.90
2022-12-06T09:02:48.077Z,11.50
2022-12-06T09:05:18.093Z,11.57
2022-12-06T09:07:47.717Z,10.52
2022-12-06T09:10:17.409Z,12.63
2022-12-06T09:12:48.253Z,11.50
2022-12-06T09:15:17.957Z,11.55
2022-12-06T09:17:47.405Z,13.38
2022-12-06T09:20:18.359Z,13.45
2022-12-06T09:22:48.094Z,11.80
2022-12-06T09:25:18.347Z,11.95
2022-12-06T09:27:49.392Z,14.65
2022-12-06T09:30:19.138Z,13.65
2022-12-06T09:45:54.520Z,8.25
2022-12-06T09:49:03.935Z,7.47
2022-12-06T09:52:23.919Z,8.00
2022-12-06T09:55:16.713Z,7.18
2022-12-06T10:03:48.759Z,5.90
2022-12-06T10:06:22.123Z,7.47
2022-12-06T10:12:01.390Z,6.97
2022-12-06T10:14:57.578Z,7.25
2022-12-06T10:17:44.687Z,6.35
2022-12-06T10:20:30.923Z,6.57
2022-12-06T10:23:17.680Z,6.05
2022-12-06T10:26:03.419Z,7.72
2022-12-06T10:28:45.622Z,7.13
2022-12-06T10:31:24.707Z,11.35
2022-12-06T10:34:01.483Z,7.78
2022-12-06T10:36:45.571Z,33.95
2022-12-06T10:39:23.635Z,7.78
2022-12-06T10:42:07.496Z,17.52
2022-12-06T10:44:44.619Z,8.10
2022-12-06T10:47:22.460Z,6.05
2022-12-06T10:49:59.788Z,5.20
2022-12-06T10:52:41.366Z,6.13
2022-12-06T10:55:28.136Z,6.07
2022-12-06T10:58:16.142Z,5.47
2022-12-06T11:00:56.334Z,8.80
2022-12-06T11:03:31.595Z,6.32
2022-12-06T11:06:08.453Z,5.63
2022-12-06T11:08:45.575Z,7.15
2022-12-06T11:11:20.121Z,5.60
2022-12-06T11:13:55.165Z,6.38
2022-12-06T11:16:31.440Z,5.50
2022-12-06T11:19:20.740Z,5.03
2022-12-06T11:22:04.642Z,6.18
2022-12-06T11:24:53.668Z,5.80
2022-12-06T11:27:32.046Z,5.75
2022-12-06T11:30:04.052Z,5.65
2022-12-06T11:32:33.708Z,6.28
2022-12-06T11:35:03.230Z,5.43
2022-12-06T11:37:37.696Z,5.07
2022-12-06T11:40:25.703Z,5.43
2022-12-06T11:42:56.919Z,6.35
2022-12-06T11:45:30.339Z,4.13
2022-12-06T11:50:35.701Z,4.47
2022-12-06T11:53:14.903Z,4.35
2022-12-06T11:55:52.452Z,5.05
2022-12-06T11:58:31.967Z,3.90
2022-12-06T12:01:06.237Z,4.30
2022-12-06T12:03:38.915Z,3.90
2022-12-06T12:06:18.100Z,4.20
2022-12-06T12:09:01.823Z,3.95
2022-12-06T12:11:40.006Z,4.03
2022-12-06T12:14:19.105Z,3.72
2022-12-06T12:16:55.331Z,3.47
2022-12-06T12:19:42.741Z,4.13
2022-12-06T12:22:26.547Z,3.50
2022-12-06T12:27:54.459Z,2.80
2022-12-06T12:30:35.371Z,2.90
2022-12-06T12:33:22.045Z,3.15
2022-12-06T12:35:57.620Z,3.55
2022-12-06T12:38:42.893Z,2.80
2022-12-06T12:41:35.599Z,2.85
2022-12-06T12:44:37.132Z,2.70
2022-12-06T12:47:19.832Z,3.10
2022-12-06T12:50:05.290Z,2.97
2022-12-06T12:54:14.384Z,2.78
2022-12-06T12:56:43.869Z,3.10
2022-12-06T12:59:19.566Z,3.25
2022-12-06T13:01:57.698Z,2.70
2022-12-06T13:04:44.784Z,3.10
2022-12-06T14:12:42.412Z,3.53
2022-12-06T14:15:20.602Z,3.05
2022-12-06T14:18:03.084Z,3.00
2022-12-06T14:20:36.112Z,3.03
2022-12-06T14:23:27.606Z,3.17
2022-12-06T14:26:20.937Z,4.32
2022-12-06T14:28:52.644Z,3.85
2022-12-06T14:31:30.263Z,4.43
2022-12-06T14:33:59.831Z,3.55
2022-12-06T14:36:35.195Z,3.80
2022-12-06T15:30:39.479Z,6.35
2022-12-06T15:33:18.395Z,5.47
2022-12-06T15:35:48.134Z,5.40
2022-12-06T15:38:18.143Z,5.82
2022-12-06T15:40:52.100Z,6.10
2022-12-06T15:43:35.176Z,4.93
2022-12-06T15:46:07.044Z,5.80
2022-12-06T15:48:37.518Z,5.95
2022-12-06T15:51:10.777Z,5.07
2022-12-06T15:53:41.691Z,5.43
2022-12-06T15:56:16.021Z,6.25
2022-12-06T15:58:47.478Z,6.13
2022-12-06T16:01:22.938Z,5.78
2022-12-06T16:03:56.056Z,7.55
2022-12-06T16:06:28.072Z,7.10
2022-12-06T16:08:58.375Z,7.63
2022-12-06T16:11:28.715Z,7.05
2022-12-06T16:13:58.450Z,6.68
2022-12-06T16:16:29.720Z,8.05
2022-12-06T16:18:59.578Z,7.40
2022-12-06T16:21:32.569Z,7.72
2022-12-06T16:24:13.958Z,8.10
2022-12-06T16:26:45.841Z,7.22
2022-12-06T16:29:20.939Z,7.55
2022-12-06T16:31:53.267Z,7.90
2022-12-06T16:34:23.041Z,8.23
2022-12-06T16:37:04.718Z,7.50
2022-12-06T16:39:35.804Z,7.65
2022-12-06T16:42:07.061Z,8.18
2022-12-06T16:44:57.542Z,7.10
2022-12-06T16:49:58.186Z,8.60
2022-12-06T16:52:27.754Z,10.32
2022-12-06T16:54:57.347Z,8.95
2022-12-06T16:57:26.954Z,9.52
2022-12-06T16:59:56.517Z,10.70
2022-12-06T17:02:33.967Z,11.07
2022-12-06T17:05:06.506Z,11.77
2022-12-06T17:07:39.130Z,9.68
2022-12-06T17:10:10.257Z,9.43
2022-12-06T17:12:40.428Z,8.57
2022-12-06T17:15:15.193Z,9.75
2022-12-06T17:17:46.378Z,8.77
2022-12-06T18:36:08.601Z,8.88
2022-12-06T18:38:39.609Z,9.10
2022-12-06T18:41:12.318Z,10.77
2022-12-06T18:43:42.631Z,9.00
2022-12-06T18:46:15.921Z,10.32
2022-12-06T18:51:20.243Z,10.05
2022-12-06T18:53:52.989Z,8.82
2022-12-06T18:56:25.468Z,11.75
2022-12-06T18:58:55.366Z,8.77
2022-12-06T19:01:28.388Z,10.52
2022-12-06T19:04:00.923Z,10.55
2022-12-06T19:06:34.145Z,9.35
2022-12-06T19:09:09.337Z,10.07
2022-12-06T19:11:40.913Z,9.57
2022-12-06T19:14:11.243Z,9.40
2022-12-06T19:16:43.943Z,10.55
2022-12-06T19:19:18.560Z,9.80
2022-12-06T19:21:50.059Z,10.77
2022-12-06T19:24:25.091Z,11.00
2022-12-06T19:26:57.950Z,11.02
2022-12-06T19:29:29.224Z,11.10
2022-12-06T19:31:58.860Z,10.05
2022-12-06T19:34:30.204Z,9.98
2022-12-06T19:36:59.960Z,10.65
2022-12-06T19:39:30.990Z,11.63
2022-12-06T19:42:17.904Z,11.60
2022-12-06T19:44:47.705Z,11.52
2022-12-06T19:47:17.332Z,13.32
2022-12-06T19:49:46.927Z,12.73
2022-12-06T19:52:16.563Z,11.27
2022-12-06T19:54:47.560Z,11.20
2022-12-06T19:57:17.344Z,11.35
2022-12-06T19:59:46.989Z,13.10
2022-12-06T20:02:16.731Z,12.98
2022-12-06T20:04:46.554Z,11.80
2022-12-06T20:07:16.308Z,12.35
2022-12-06T20:09:47.324Z,11.52
2022-12-06T20:12:16.875Z,10.57
2022-12-06T20:14:49.036Z,10.68
2022-12-06T20:17:23.594Z,12.13
2022-12-06T20:19:53.400Z,11.00
2022-12-06T20:22:23.005Z,11.98
2022-12-06T20:24:54.032Z,12.43
2022-12-06T20:27:43.837Z,12.27
2022-12-06T20:30:15.720Z,12.93
2022-12-06T20:32:45.406Z,12.00
2022-12-06T20:35:15.315Z,12.23
2022-12-06T20:37:44.960Z,11.93
2022-12-06T20:40:16.993Z,10.20
2022-12-06T20:42:47.083Z,10.45
2022-12-06T20:45:18.188Z,11.25
2022-12-06T20:47:51.685Z,11.18
2022-12-06T20:50:22.195Z,11.10
2022-12-06T20:52:51.839Z,11.00
2022-12-06T20:55:22.816Z,10.75
2022-12-06T20:57:52.844Z,11.63
2022-12-06T21:00:23.338Z,12.00
2022-12-06T21:02:52.944Z,11.15
2022-12-06T21:05:22.509Z,12.23
2022-12-06T21:07:52.090Z,11.65
2022-12-06T21:10:23.101Z,12.43
2022-12-06T21:12:52.585Z,10.88
2022-12-06T21:15:22.248Z,11.38
2022-12-06T21:17:51.767Z,11.27
2022-12-06T21:20:21.401Z,10.73
2022-12-06T21:22:52.007Z,12.52
2022-12-06T21:25:22.848Z,11.95
2022-12-06T21:27:52.347Z,12.45
2022-12-06T21:30:21.967Z,11.98
2022-12-06T21:32:52.036Z,12.18
2022-12-06T21:35:21.892Z,14.35
2022-12-06T21:37:52.063Z,13.05
2022-12-06T21:40:23.041Z,11.70
2022-12-06T21:42:52.736Z,12.13
2022-12-06T21:45:22.395Z,11.88
2022-12-06T21:47:51.977Z,11.85
2022-12-06T21:50:21.503Z,12.57
2022-12-06T21:52:51.025Z,14.13
2022-12-06T21:55:22.007Z,12.32
2022-12-06T21:57:51.741Z,12.90
2022-12-06T22:00:22.056Z,13.40
2022-12-06T22:02:54.099Z,12.57
2022-12-06T22:05:23.941Z,13.63
2022-12-06T22:07:53.491Z,11.52
2022-12-06T22:10:24.546Z,13.05
2022-12-06T22:12:54.074Z,13.75
2022-12-06T22:15:23.577Z,13.05
2022-12-06T22:17:53.219Z,12.32
2022-12-06T22:20:22.701Z,14.43
2022-12-06T22:22:52.237Z,11.98
2022-12-06T22:25:23.241Z,12.60
2022-12-06T22:27:54.908Z,12.30
2022-12-06T22:30:24.469Z,11.63
2022-12-06T22:32:54.115Z,11.13
2022-12-06T22:35:23.660Z,12.20
2022-12-06T22:37:53.252Z,11.85
2022-12-06T22:40:24.193Z,12.70
2022-12-06T22:42:53.805Z,13.77
2022-12-06T22:45:23.730Z,12.60
2022-12-06T22:47:53.442Z,12.90
2022-12-06T22:50:23.049Z,12.25
2022-12-06T22:52:52.562Z,11.73
2022-12-06T22:55:23.594Z,11.93
2022-12-06T22:57:53.154Z,10.77
2022-12-06T23:00:22.914Z,11.90
2022-12-06T23:02:53.040Z,12.68
2022-12-06T23:05:23.036Z,10.98
2022-12-06T23:07:52.665Z,11.57
2022-12-06T23:10:23.734Z,10.75
2022-12-06T23:12:53.221Z,12.57
2022-12-06T23:15:22.755Z,11.15
